sensor_id;sensor_type;location;lat;lon;timestamp;pressure;altitude;pressure_sealevel;temperature;humidity
56992;BME280;42885;49.754;18.636;2023-02-22T00:00:29;98270.92;;;11.22;92.17
56992;BME280;42885;49.754;18.636;2023-02-22T00:03:14;98261.04;;;11.05;92.71
56992;BME280;42885;49.754;18.636;2023-02-22T00:05:46;98261.04;;;11.05;92.71
56992;BME280;42885;49.754;18.636;2023-02-22T00:08:17;98261.58;;;11.03;93.38
56992;BME280;42885;49.754;18.636;2023-02-22T00:10:48;98258.63;;;10.73;97.32
56992;BME280;42885;49.754;18.636;2023-02-22T00:13:22;98265.83;;;10.69;95.29
56992;BME280;42885;49.754;18.636;2023-02-22T00:16:00;98266.19;;;10.56;97.15
56992;BME280;42885;49.754;18.636;2023-02-22T00:18:28;98264.71;;;10.52;96.84
56992;BME280;42885;49.754;18.636;2023-02-22T00:21:00;98258.33;;;10.49;99.34
56992;BME280;42885;49.754;18.636;2023-02-22T00:23:31;98268.06;;;10.54;99.04
56992;BME280;42885;49.754;18.636;2023-02-22T00:26:04;98269.85;;;10.46;98.95
56992;BME280;42885;49.754;18.636;2023-02-22T00:28:37;98273.42;;;10.29;99.98
56992;BME280;42885;49.754;18.636;2023-02-22T00:31:08;98270.03;;;10.57;99.28
56992;BME280;42885;49.754;18.636;2023-02-22T00:33:40;98274.38;;;10.35;100.00
56992;BME280;42885;49.754;18.636;2023-02-22T00:36:12;98269.93;;;10.07;100.00
56992;BME280;42885;49.754;18.636;2023-02-22T00:38:43;98280.20;;;9.79;100.00
56992;BME280;42885;49.754;18.636;2023-02-22T00:41:15;98283.91;;;9.75;100.00
56992;BME280;42885;49.754;18.636;2023-02-22T00:43:46;98283.64;;;9.72;100.00
56992;BME280;42885;49.754;18.636;2023-02-22T00:46:17;98286.63;;;9.57;100.00
56992;BME280;42885;49.754;18.636;2023-02-22T00:48:48;98286.55;;;9.35;100.00
56992;BME280;42885;49.754;18.636;2023-02-22T00:51:20;98279.37;;;9.23;100.00
56992;BME280;42885;49.754;18.636;2023-02-22T00:53:52;98284.39;;;9.19;100.00
56992;BME280;42885;49.754;18.636;2023-02-22T00:56:23;98287.78;;;9.12;100.00
56992;BME280;42885;49.754;18.636;2023-02-22T00:58:55;98281.31;;;9.03;100.00
56992;BME280;42885;49.754;18.636;2023-02-22T01:01:27;98278.03;;;8.91;100.00
56992;BME280;42885;49.754;18.636;2023-02-22T01:03:58;98278.22;;;9.04;100.00
56992;BME280;42885;49.754;18.636;2023-02-22T01:06:28;98274.86;;;9.02;100.00
56992;BME280;42885;49.754;18.636;2023-02-22T01:09:01;98281.50;;;9.07;100.00
56992;BME280;42885;49.754;18.636;2023-02-22T01:11:33;98276.89;;;9.13;100.00
56992;BME280;42885;49.754;18.636;2023-02-22T01:14:04;98284.82;;;9.27;100.00
56992;BME280;42885;49.754;18.636;2023-02-22T01:16:37;98271.69;;;9.04;100.00
56992;BME280;42885;49.754;18.636;2023-02-22T01:19:08;98276.52;;;9.12;100.00
56992;BME280;42885;49.754;18.636;2023-02-22T01:21:41;98277.31;;;9.21;100.00
56992;BME280;42885;49.754;18.636;2023-02-22T01:24:12;98274.00;;;9.26;100.00
56992;BME280;42885;49.754;18.636;2023-02-22T01:26:51;98281.40;;;9.34;100.00
56992;BME280;42885;49.754;18.636;2023-02-22T01:29:23;98279.92;;;9.21;100.00
56992;BME280;42885;49.754;18.636;2023-02-22T01:31:55;98272.30;;;8.68;100.00
56992;BME280;42885;49.754;18.636;2023-02-22T01:34:26;98276.91;;;8.88;100.00
56992;BME280;42885;49.754;18.636;2023-02-22T01:36:59;98276.59;;;8.94;100.00
56992;BME280;42885;49.754;18.636;2023-02-22T01:39:31;98272.69;;;8.85;100.00
56992;BME280;42885;49.754;18.636;2023-02-22T01:42:02;98273.16;;;9.09;100.00
56992;BME280;42885;49.754;18.636;2023-02-22T01:44:36;98273.63;;;9.00;100.00
56992;BME280;42885;49.754;18.636;2023-02-22T01:47:07;98275.63;;;9.20;100.00
56992;BME280;42885;49.754;18.636;2023-02-22T01:49:41;98265.01;;;9.23;100.00
56992;BME280;42885;49.754;18.636;2023-02-22T01:52:19;98265.01;;;9.23;100.00
56992;BME280;42885;49.754;18.636;2023-02-22T01:54:52;98265.61;;;8.62;100.00
56992;BME280;42885;49.754;18.636;2023-02-22T01:57:25;98265.61;;;8.62;100.00
56992;BME280;42885;49.754;18.636;2023-02-22T02:00:05;98273.42;;;8.71;100.00
56992;BME280;42885;49.754;18.636;2023-02-22T02:02:42;98273.48;;;9.03;100.00
56992;BME280;42885;49.754;18.636;2023-02-22T02:05:13;98276.03;;;9.12;100.00
56992;BME280;42885;49.754;18.636;2023-02-22T02:07:44;98276.13;;;9.27;100.00
56992;BME280;42885;49.754;18.636;2023-02-22T02:10:15;98269.13;;;9.11;100.00
56992;BME280;42885;49.754;18.636;2023-02-22T02:12:48;98276.14;;;9.43;100.00
56992;BME280;42885;49.754;18.636;2023-02-22T02:15:21;98272.00;;;9.39;100.00
56992;BME280;42885;49.754;18.636;2023-02-22T02:17:53;98267.59;;;10.16;100.00
56992;BME280;42885;49.754;18.636;2023-02-22T02:23:12;98269.16;;;9.50;100.00
56992;BME280;42885;49.754;18.636;2023-02-22T02:34:22;98259.48;;;9.83;100.00
56992;BME280;42885;49.754;18.636;2023-02-22T02:36:59;98265.64;;;9.19;100.00
56992;BME280;42885;49.754;18.636;2023-02-22T02:39:34;98265.64;;;9.19;100.00
56992;BME280;42885;49.754;18.636;2023-02-22T02:42:07;98261.83;;;9.18;100.00
56992;BME280;42885;49.754;18.636;2023-02-22T02:44:46;98263.66;;;9.00;100.00
56992;BME280;42885;49.754;18.636;2023-02-22T02:47:24;98264.03;;;8.85;100.00
56992;BME280;42885;49.754;18.636;2023-02-22T02:52:55;98265.03;;;8.57;100.00
56992;BME280;42885;49.754;18.636;2023-02-22T02:55:31;98255.21;;;8.53;100.00
56992;BME280;42885;49.754;18.636;2023-02-22T02:58:05;98255.21;;;8.53;100.00
56992;BME280;42885;49.754;18.636;2023-02-22T03:00:38;98257.53;;;8.92;100.00
56992;BME280;42885;49.754;18.636;2023-02-22T03:03:39;98259.64;;;9.73;100.00
56992;BME280;42885;49.754;18.636;2023-02-22T03:06:18;98258.98;;;9.14;100.00
56992;BME280;42885;49.754;18.636;2023-02-22T03:08:56;98264.70;;;9.20;100.00
56992;BME280;42885;49.754;18.636;2023-02-22T03:11:29;98266.36;;;9.30;100.00
56992;BME280;42885;49.754;18.636;2023-02-22T03:14:27;98273.94;;;9.51;100.00
56992;BME280;42885;49.754;18.636;2023-02-22T03:17:02;98273.83;;;9.13;100.00
56992;BME280;42885;49.754;18.636;2023-02-22T03:22:28;98281.40;;;9.34;100.00
56992;BME280;42885;49.754;18.636;2023-02-22T03:25:02;98276.07;;;9.52;100.00
56992;BME280;42885;49.754;18.636;2023-02-22T03:27:47;98275.66;;;9.43;100.00
56992;BME280;42885;49.754;18.636;2023-02-22T03:30:33;98279.72;;;9.33;100.00
56992;BME280;42885;49.754;18.636;2023-02-22T03:33:01;98276.66;;;9.41;100.00
56992;BME280;42885;49.754;18.636;2023-02-22T03:35:43;98280.85;;;9.20;100.00
56992;BME280;42885;49.754;18.636;2023-02-22T03:38:16;98281.81;;;9.42;100.00
56992;BME280;42885;49.754;18.636;2023-02-22T03:40:51;98279.13;;;9.12;100.00
56992;BME280;42885;49.754;18.636;2023-02-22T03:43:26;98281.25;;;8.96;100.00
56992;BME280;42885;49.754;18.636;2023-02-22T03:45:59;98277.16;;;8.83;100.00
56992;BME280;42885;49.754;18.636;2023-02-22T03:48:45;98280.88;;;8.95;100.00
56992;BME280;42885;49.754;18.636;2023-02-22T03:51:15;98277.97;;;8.92;100.00
56992;BME280;42885;49.754;18.636;2023-02-22T03:53:49;98282.55;;;8.80;100.00
56992;BME280;42885;49.754;18.636;2023-02-22T03:56:34;98280.33;;;8.97;100.00
56992;BME280;42885;49.754;18.636;2023-02-22T03:59:06;98282.88;;;8.90;100.00
56992;BME280;42885;49.754;18.636;2023-02-22T04:01:38;98281.56;;;9.15;100.00
56992;BME280;42885;49.754;18.636;2023-02-22T04:04:09;98282.09;;;9.21;100.00
56992;BME280;42885;49.754;18.636;2023-02-22T04:06:41;98280.02;;;9.35;100.00
56992;BME280;42885;49.754;18.636;2023-02-22T04:09:12;98284.47;;;9.49;100.00
56992;BME280;42885;49.754;18.636;2023-02-22T04:11:43;98281.74;;;9.67;100.00
56992;BME280;42885;49.754;18.636;2023-02-22T04:14:15;98286.73;;;9.40;100.00
56992;BME280;42885;49.754;18.636;2023-02-22T04:16:46;98286.87;;;9.29;100.00
56992;BME280;42885;49.754;18.636;2023-02-22T04:19:17;98288.88;;;9.24;100.00
56992;BME280;42885;49.754;18.636;2023-02-22T04:21:48;98292.53;;;9.21;100.00
56992;BME280;42885;49.754;18.636;2023-02-22T04:24:21;98289.31;;;9.32;100.00
56992;BME280;42885;49.754;18.636;2023-02-22T04:26:52;98288.06;;;9.23;100.00
56992;BME280;42885;49.754;18.636;2023-02-22T04:29:25;98295.09;;;9.30;100.00
56992;BME280;42885;49.754;18.636;2023-02-22T04:31:56;98280.05;;;9.27;100.00
56992;BME280;42885;49.754;18.636;2023-02-22T04:34:28;98280.05;;;9.27;100.00
56992;BME280;42885;49.754;18.636;2023-02-22T04:37:00;98290.34;;;9.30;100.00
56992;BME280;42885;49.754;18.636;2023-02-22T04:39:32;98287.38;;;9.20;100.00
56992;BME280;42885;49.754;18.636;2023-02-22T04:42:03;98289.86;;;9.30;100.00
56992;BME280;42885;49.754;18.636;2023-02-22T04:44:35;98293.31;;;9.47;100.00
56992;BME280;42885;49.754;18.636;2023-02-22T04:47:07;98293.92;;;8.95;100.00
56992;BME280;42885;49.754;18.636;2023-02-22T04:49:38;98294.80;;;8.87;100.00
56992;BME280;42885;49.754;18.636;2023-02-22T04:52:09;98295.66;;;9.19;100.00
56992;BME280;42885;49.754;18.636;2023-02-22T04:54:41;98291.92;;;9.16;100.00
56992;BME280;42885;49.754;18.636;2023-02-22T04:57:13;98292.38;;;9.16;100.00
56992;BME280;42885;49.754;18.636;2023-02-22T04:59:45;98293.78;;;9.30;100.00
56992;BME280;42885;49.754;18.636;2023-02-22T05:02:17;98292.30;;;9.49;100.00
56992;BME280;42885;49.754;18.636;2023-02-22T05:04:48;98279.50;;;9.13;100.00
56992;BME280;42885;49.754;18.636;2023-02-22T05:07:19;98292.48;;;9.14;100.00
56992;BME280;42885;49.754;18.636;2023-02-22T05:09:50;98292.28;;;9.26;100.00
56992;BME280;42885;49.754;18.636;2023-02-22T05:12:21;98290.19;;;9.24;100.00
56992;BME280;42885;49.754;18.636;2023-02-22T05:14:52;98286.73;;;9.07;100.00
56992;BME280;42885;49.754;18.636;2023-02-22T05:17:23;98292.63;;;8.95;100.00
56992;BME280;42885;49.754;18.636;2023-02-22T05:19:54;98293.87;;;8.88;100.00
56992;BME280;42885;49.754;18.636;2023-02-22T05:22:25;98292.27;;;8.85;100.00
56992;BME280;42885;49.754;18.636;2023-02-22T05:24:56;98298.20;;;8.80;100.00
56992;BME280;42885;49.754;18.636;2023-02-22T05:27:27;98298.67;;;8.95;100.00
56992;BME280;42885;49.754;18.636;2023-02-22T05:29:58;98297.23;;;8.90;100.00
56992;BME280;42885;49.754;18.636;2023-02-22T05:32:29;98296.30;;;8.66;100.00
56992;BME280;42885;49.754;18.636;2023-02-22T05:35:00;98304.36;;;8.70;100.00
56992;BME280;42885;49.754;18.636;2023-02-22T05:37:31;98303.13;;;8.68;100.00
56992;BME280;42885;49.754;18.636;2023-02-22T05:40:03;98300.58;;;8.76;100.00
56992;BME280;42885;49.754;18.636;2023-02-22T05:42:34;98302.25;;;8.86;100.00
56992;BME280;42885;49.754;18.636;2023-02-22T05:45:06;98301.37;;;8.69;100.00
56992;BME280;42885;49.754;18.636;2023-02-22T05:47:38;98309.92;;;8.55;100.00
56992;BME280;42885;49.754;18.636;2023-02-22T05:50:09;98310.81;;;8.63;100.00
56992;BME280;42885;49.754;18.636;2023-02-22T05:52:40;98311.44;;;8.68;100.00
56992;BME280;42885;49.754;18.636;2023-02-22T05:55:14;98312.40;;;8.99;100.00
56992;BME280;42885;49.754;18.636;2023-02-22T05:57:45;98313.21;;;8.84;100.00
56992;BME280;42885;49.754;18.636;2023-02-22T06:00:22;98316.73;;;8.91;100.00
56992;BME280;42885;49.754;18.636;2023-02-22T06:02:55;98314.86;;;8.77;100.00
56992;BME280;42885;49.754;18.636;2023-02-22T06:05:26;98320.73;;;8.90;100.00
56992;BME280;42885;49.754;18.636;2023-02-22T06:07:58;98321.76;;;9.60;100.00
56992;BME280;42885;49.754;18.636;2023-02-22T06:10:29;98325.08;;;8.98;100.00
56992;BME280;42885;49.754;18.636;2023-02-22T06:13:01;98328.36;;;9.27;100.00
56992;BME280;42885;49.754;18.636;2023-02-22T06:15:32;98337.39;;;9.12;100.00
56992;BME280;42885;49.754;18.636;2023-02-22T06:18:04;98338.09;;;9.48;100.00
56992;BME280;42885;49.754;18.636;2023-02-22T06:20:34;98342.48;;;9.63;100.00
56992;BME280;42885;49.754;18.636;2023-02-22T06:23:05;98344.67;;;9.55;100.00
56992;BME280;42885;49.754;18.636;2023-02-22T06:25:36;98341.59;;;9.72;100.00
56992;BME280;42885;49.754;18.636;2023-02-22T06:28:07;98342.11;;;9.62;100.00
56992;BME280;42885;49.754;18.636;2023-02-22T06:30:39;98342.11;;;9.62;100.00
56992;BME280;42885;49.754;18.636;2023-02-22T06:33:11;98351.70;;;9.78;100.00
56992;BME280;42885;49.754;18.636;2023-02-22T06:35:42;98344.50;;;9.98;100.00
56992;BME280;42885;49.754;18.636;2023-02-22T06:38:22;98350.10;;;9.99;100.00
56992;BME280;42885;49.754;18.636;2023-02-22T06:40:53;98353.91;;;9.93;100.00
56992;BME280;42885;49.754;18.636;2023-02-22T06:43:24;98352.53;;;9.95;100.00
56992;BME280;42885;49.754;18.636;2023-02-22T06:45:55;98360.63;;;9.74;100.00
56992;BME280;42885;49.754;18.636;2023-02-22T06:48:26;98363.40;;;9.87;100.00
56992;BME280;42885;49.754;18.636;2023-02-22T06:50:57;98363.09;;;10.00;100.00
56992;BME280;42885;49.754;18.636;2023-02-22T06:53:28;98364.74;;;9.94;100.00
56992;BME280;42885;49.754;18.636;2023-02-22T06:55:59;98367.88;;;9.85;100.00
56992;BME280;42885;49.754;18.636;2023-02-22T06:58:30;98364.92;;;9.75;100.00
56992;BME280;42885;49.754;18.636;2023-02-22T07:01:01;98366.05;;;9.94;100.00
56992;BME280;42885;49.754;18.636;2023-02-22T07:03:33;98377.92;;;9.76;100.00
56992;BME280;42885;49.754;18.636;2023-02-22T07:06:06;98377.63;;;9.90;100.00
56992;BME280;42885;49.754;18.636;2023-02-22T07:08:37;98375.16;;;10.03;100.00
56992;BME280;42885;49.754;18.636;2023-02-22T07:11:08;98370.90;;;10.16;100.00
56992;BME280;42885;49.754;18.636;2023-02-22T07:13:39;98378.52;;;10.21;100.00
56992;BME280;42885;49.754;18.636;2023-02-22T07:16:10;98376.80;;;10.20;100.00
56992;BME280;42885;49.754;18.636;2023-02-22T07:18:41;98376.11;;;10.32;100.00
56992;BME280;42885;49.754;18.636;2023-02-22T07:21:12;98379.47;;;10.51;100.00
56992;BME280;42885;49.754;18.636;2023-02-22T07:23:51;98376.75;;;10.29;100.00
56992;BME280;42885;49.754;18.636;2023-02-22T07:26:22;98385.87;;;10.22;100.00
56992;BME280;42885;49.754;18.636;2023-02-22T07:28:53;98384.23;;;10.12;100.00
56992;BME280;42885;49.754;18.636;2023-02-22T07:31:24;98382.94;;;10.35;100.00
56992;BME280;42885;49.754;18.636;2023-02-22T07:33:56;98383.50;;;10.40;100.00
56992;BME280;42885;49.754;18.636;2023-02-22T07:36:27;98380.48;;;10.48;100.00
56992;BME280;42885;49.754;18.636;2023-02-22T07:38:58;98384.44;;;10.39;100.00
56992;BME280;42885;49.754;18.636;2023-02-22T07:41:47;98384.38;;;10.25;100.00
56992;BME280;42885;49.754;18.636;2023-02-22T07:44:38;98379.90;;;10.43;100.00
56992;BME280;42885;49.754;18.636;2023-02-22T07:47:28;98378.53;;;10.52;100.00
56992;BME280;42885;49.754;18.636;2023-02-22T07:50:20;98379.34;;;10.45;100.00
56992;BME280;42885;49.754;18.636;2023-02-22T07:52:54;98379.08;;;10.42;100.00
56992;BME280;42885;49.754;18.636;2023-02-22T07:55:27;98373.34;;;10.88;100.00
56992;BME280;42885;49.754;18.636;2023-02-22T07:58:01;98375.77;;;10.91;100.00
56992;BME280;42885;49.754;18.636;2023-02-22T08:00:37;98372.46;;;10.58;100.00
56992;BME280;42885;49.754;18.636;2023-02-22T08:03:10;98383.92;;;10.49;100.00
56992;BME280;42885;49.754;18.636;2023-02-22T08:05:47;98383.64;;;10.84;100.00
56992;BME280;42885;49.754;18.636;2023-02-22T08:08:24;98375.30;;;10.84;100.00
56992;BME280;42885;49.754;18.636;2023-02-22T08:10:55;98382.87;;;10.82;100.00
56992;BME280;42885;49.754;18.636;2023-02-22T08:13:27;98382.31;;;10.91;100.00
56992;BME280;42885;49.754;18.636;2023-02-22T08:15:58;98371.97;;;11.04;100.00
56992;BME280;42885;49.754;18.636;2023-02-22T08:18:29;98384.20;;;10.96;100.00
56992;BME280;42885;49.754;18.636;2023-02-22T08:21:00;98378.57;;;10.81;100.00
56992;BME280;42885;49.754;18.636;2023-02-22T08:23:31;98375.13;;;10.80;100.00
56992;BME280;42885;49.754;18.636;2023-02-22T08:26:07;98377.94;;;10.92;100.00
56992;BME280;42885;49.754;18.636;2023-02-22T08:28:38;98379.71;;;11.06;100.00
56992;BME280;42885;49.754;18.636;2023-02-22T08:31:09;98376.44;;;11.02;100.00
56992;BME280;42885;49.754;18.636;2023-02-22T08:33:40;98377.45;;;10.99;100.00
56992;BME280;42885;49.754;18.636;2023-02-22T08:36:11;98379.86;;;10.73;100.00
56992;BME280;42885;49.754;18.636;2023-02-22T08:38:42;98376.53;;;10.86;100.00
56992;BME280;42885;49.754;18.636;2023-02-22T08:41:13;98377.47;;;10.85;100.00
56992;BME280;42885;49.754;18.636;2023-02-22T08:43:44;98376.36;;;11.11;100.00
56992;BME280;42885;49.754;18.636;2023-02-22T08:46:16;98375.52;;;10.96;100.00
56992;BME280;42885;49.754;18.636;2023-02-22T08:48:49;98371.20;;;11.38;100.00
56992;BME280;42885;49.754;18.636;2023-02-22T08:51:21;98374.56;;;11.33;100.00
56992;BME280;42885;49.754;18.636;2023-02-22T08:53:52;98369.77;;;11.40;100.00
56992;BME280;42885;49.754;18.636;2023-02-22T08:56:23;98374.33;;;11.65;100.00
56992;BME280;42885;49.754;18.636;2023-02-22T08:58:55;98372.81;;;11.68;98.19
56992;BME280;42885;49.754;18.636;2023-02-22T09:01:27;98368.89;;;11.96;93.87
56992;BME280;42885;49.754;18.636;2023-02-22T09:03:59;98367.14;;;12.04;92.35
56992;BME280;42885;49.754;18.636;2023-02-22T09:06:31;98371.19;;;11.80;92.94
56992;BME280;42885;49.754;18.636;2023-02-22T09:09:02;98373.88;;;11.86;93.52
56992;BME280;42885;49.754;18.636;2023-02-22T09:11:33;98374.16;;;12.03;90.39
56992;BME280;42885;49.754;18.636;2023-02-22T09:14:04;98376.72;;;12.18;88.05
56992;BME280;42885;49.754;18.636;2023-02-22T09:16:35;98372.45;;;12.30;83.86
56992;BME280;42885;49.754;18.636;2023-02-22T09:19:07;98368.16;;;12.62;81.25
56992;BME280;42885;49.754;18.636;2023-02-22T09:21:38;98373.46;;;12.68;78.28
56992;BME280;42885;49.754;18.636;2023-02-22T09:24:09;98373.46;;;12.68;78.51
56992;BME280;42885;49.754;18.636;2023-02-22T09:26:44;98373.50;;;12.60;75.17
56992;BME280;42885;49.754;18.636;2023-02-22T09:29:17;98375.55;;;12.75;72.91
56992;BME280;42885;49.754;18.636;2023-02-22T09:31:51;98368.16;;;12.88;64.06
56992;BME280;42885;49.754;18.636;2023-02-22T09:34:23;98370.89;;;12.86;63.12
56992;BME280;42885;49.754;18.636;2023-02-22T09:36:56;98379.18;;;12.80;62.90
56992;BME280;42885;49.754;18.636;2023-02-22T09:39:27;98376.97;;;12.41;64.68
56992;BME280;42885;49.754;18.636;2023-02-22T09:44:42;98380.08;;;12.40;64.98
56992;BME280;42885;49.754;18.636;2023-02-22T09:47:15;98372.33;;;11.83;64.26
56992;BME280;42885;49.754;18.636;2023-02-22T09:50:11;98374.47;;;11.77;64.65
56992;BME280;42885;49.754;18.636;2023-02-22T09:52:58;98373.12;;;12.26;65.73
56992;BME280;42885;49.754;18.636;2023-02-22T09:55:49;98374.62;;;12.23;65.64
56992;BME280;42885;49.754;18.636;2023-02-22T09:58:32;98367.92;;;12.52;65.59
56992;BME280;42885;49.754;18.636;2023-02-22T10:01:19;98368.33;;;12.46;64.42
56992;BME280;42885;49.754;18.636;2023-02-22T10:03:58;98368.16;;;12.29;63.00
56992;BME280;42885;49.754;18.636;2023-02-22T10:06:29;98367.15;;;11.89;64.52
56992;BME280;42885;49.754;18.636;2023-02-22T10:09:03;98362.90;;;12.08;63.22
56992;BME280;42885;49.754;18.636;2023-02-22T10:11:54;98363.72;;;12.09;63.17
56992;BME280;42885;49.754;18.636;2023-02-22T10:17:17;98359.33;;;12.02;62.84
56992;BME280;42885;49.754;18.636;2023-02-22T10:25:21;98360.22;;;12.16;66.58
56992;BME280;42885;49.754;18.636;2023-02-22T10:28:00;98354.69;;;11.93;66.94
56992;BME280;42885;49.754;18.636;2023-02-22T10:31:08;98356.17;;;11.90;67.28
56992;BME280;42885;49.754;18.636;2023-02-22T10:33:35;98353.02;;;11.84;66.97
56992;BME280;42885;49.754;18.636;2023-02-22T10:36:07;98353.32;;;12.07;65.30
56992;BME280;42885;49.754;18.636;2023-02-22T10:38:38;98354.30;;;12.19;65.57
56992;BME280;42885;49.754;18.636;2023-02-22T10:43:43;98355.28;;;11.83;65.79
56992;BME280;42885;49.754;18.636;2023-02-22T10:46:17;98356.52;;;11.98;66.71
56992;BME280;42885;49.754;18.636;2023-02-22T10:48:51;98353.02;;;11.84;66.95
56992;BME280;42885;49.754;18.636;2023-02-22T10:51:24;98350.44;;;11.70;67.83
56992;BME280;42885;49.754;18.636;2023-02-22T10:54:13;98351.80;;;11.83;67.20
56992;BME280;42885;49.754;18.636;2023-02-22T10:56:36;98348.88;;;12.22;65.91
56992;BME280;42885;49.754;18.636;2023-02-22T10:59:07;98347.92;;;12.03;66.64
56992;BME280;42885;49.754;18.636;2023-02-22T11:01:38;98349.59;;;11.97;67.01
56992;BME280;42885;49.754;18.636;2023-02-22T11:04:18;98343.30;;;12.47;66.87
56992;BME280;42885;49.754;18.636;2023-02-22T11:09:46;98331.13;;;12.85;63.03
56992;BME280;42885;49.754;18.636;2023-02-22T11:12:24;98333.86;;;12.71;63.55
56992;BME280;42885;49.754;18.636;2023-02-22T11:14:53;98332.08;;;12.71;62.06
56992;BME280;42885;49.754;18.636;2023-02-22T11:17:27;98326.19;;;12.93;60.57
56992;BME280;42885;49.754;18.636;2023-02-22T11:19:59;98328.65;;;12.76;61.91
56992;BME280;42885;49.754;18.636;2023-02-22T11:22:41;98322.55;;;13.02;61.45
56992;BME280;42885;49.754;18.636;2023-02-22T11:25:17;98328.78;;;12.75;58.41
56992;BME280;42885;49.754;18.636;2023-02-22T11:27:46;98325.78;;;12.87;58.09
56992;BME280;42885;49.754;18.636;2023-02-22T11:30:29;98320.12;;;12.99;58.08
56992;BME280;42885;49.754;18.636;2023-02-22T11:33:19;98319.56;;;13.01;58.24
56992;BME280;42885;49.754;18.636;2023-02-22T11:35:54;98319.03;;;12.96;58.36
56992;BME280;42885;49.754;18.636;2023-02-22T11:38:28;98322.65;;;13.00;58.31
56992;BME280;42885;49.754;18.636;2023-02-22T11:43:48;98318.49;;;13.35;55.81
56992;BME280;42885;49.754;18.636;2023-02-22T11:49:09;98323.94;;;13.13;56.04
56992;BME280;42885;49.754;18.636;2023-02-22T11:52:32;98322.20;;;13.19;56.65
56992;BME280;42885;49.754;18.636;2023-02-22T11:54:41;98317.87;;;13.69;56.20
56992;BME280;42885;49.754;18.636;2023-02-22T11:57:31;98322.20;;;13.38;56.14
56992;BME280;42885;49.754;18.636;2023-02-22T12:00:04;98323.03;;;13.70;54.75
56992;BME280;42885;49.754;18.636;2023-02-22T12:05:51;98313.14;;;13.80;55.63
56992;BME280;42885;49.754;18.636;2023-02-22T12:14:27;98310.45;;;14.23;52.49
56992;BME280;42885;49.754;18.636;2023-02-22T12:19:46;98308.19;;;14.29;54.38
56992;BME280;42885;49.754;18.636;2023-02-22T12:25:12;98307.72;;;13.94;53.32
56992;BME280;42885;49.754;18.636;2023-02-22T12:27:43;98307.28;;;13.52;54.46
56992;BME280;42885;49.754;18.636;2023-02-22T12:30:32;98305.89;;;13.89;54.29
56992;BME280;42885;49.754;18.636;2023-02-22T12:32:56;98298.81;;;13.78;54.52
56992;BME280;42885;49.754;18.636;2023-02-22T12:35:36;98300.93;;;13.73;54.74
56992;BME280;42885;49.754;18.636;2023-02-22T12:46:42;98296.09;;;13.11;57.91
56992;BME280;42885;49.754;18.636;2023-02-22T12:49:35;98289.47;;;13.49;56.59
56992;BME280;42885;49.754;18.636;2023-02-22T12:58:24;98285.23;;;13.66;55.41
56992;BME280;42885;49.754;18.636;2023-02-22T13:01:10;98286.36;;;13.74;54.65
56992;BME280;42885;49.754;18.636;2023-02-22T13:03:44;98280.02;;;13.77;54.88
56992;BME280;42885;49.754;18.636;2023-02-22T13:12:32;98269.05;;;14.19;53.56
56992;BME280;42885;49.754;18.636;2023-02-22T13:15:08;98274.41;;;14.12;53.45
56992;BME280;42885;49.754;18.636;2023-02-22T13:17:49;98271.52;;;14.09;55.18
56992;BME280;42885;49.754;18.636;2023-02-22T13:20:33;98274.92;;;14.23;53.73
56992;BME280;42885;49.754;18.636;2023-02-22T13:23:09;98270.00;;;14.18;53.24
56992;BME280;42885;49.754;18.636;2023-02-22T13:25:47;98277.45;;;14.36;54.13
56992;BME280;42885;49.754;18.636;2023-02-22T13:31:25;98275.68;;;14.65;54.25
56992;BME280;42885;49.754;18.636;2023-02-22T13:34:08;98264.91;;;14.56;52.39
56992;BME280;42885;49.754;18.636;2023-02-22T13:36:54;98277.91;;;14.24;52.27
56992;BME280;42885;49.754;18.636;2023-02-22T13:42:17;98279.63;;;14.42;53.85
56992;BME280;42885;49.754;18.636;2023-02-22T13:47:50;98274.94;;;14.40;51.70
56992;BME280;42885;49.754;18.636;2023-02-22T13:50:50;98279.02;;;14.33;52.91
56992;BME280;42885;49.754;18.636;2023-02-22T13:53:28;98274.97;;;14.63;52.14
56992;BME280;42885;49.754;18.636;2023-02-22T13:55:57;98282.73;;;14.47;52.61
56992;BME280;42885;49.754;18.636;2023-02-22T13:58:29;98275.98;;;14.20;54.01
56992;BME280;42885;49.754;18.636;2023-02-22T14:01:00;98281.16;;;13.92;55.26
56992;BME280;42885;49.754;18.636;2023-02-22T14:03:37;98280.48;;;14.07;55.08
56992;BME280;42885;49.754;18.636;2023-02-22T14:06:38;98280.00;;;14.01;55.67
56992;BME280;42885;49.754;18.636;2023-02-22T14:09:16;98276.83;;;13.60;56.48
56992;BME280;42885;49.754;18.636;2023-02-22T14:11:49;98277.09;;;13.87;57.28
56992;BME280;42885;49.754;18.636;2023-02-22T14:14:22;98279.84;;;13.92;56.32
56992;BME280;42885;49.754;18.636;2023-02-22T14:20:04;98278.47;;;13.74;56.39
56992;BME280;42885;49.754;18.636;2023-02-22T14:22:37;98280.00;;;14.01;56.86
56992;BME280;42885;49.754;18.636;2023-02-22T14:25:32;98282.26;;;13.95;54.36
56992;BME280;42885;49.754;18.636;2023-02-22T14:27:45;98276.61;;;13.94;55.96
56992;BME280;42885;49.754;18.636;2023-02-22T14:30:25;98281.13;;;13.43;57.71
56992;BME280;42885;49.754;18.636;2023-02-22T14:32:57;98282.65;;;13.34;57.61
56992;BME280;42885;49.754;18.636;2023-02-22T14:35:35;98280.31;;;13.61;56.67
56992;BME280;42885;49.754;18.636;2023-02-22T14:38:05;98281.10;;;13.74;56.65
56992;BME280;42885;49.754;18.636;2023-02-22T14:40:37;98276.37;;;13.61;56.61
56992;BME280;42885;49.754;18.636;2023-02-22T14:43:18;98278.20;;;13.66;56.31
56992;BME280;42885;49.754;18.636;2023-02-22T14:45:51;98275.77;;;13.63;57.18
56992;BME280;42885;49.754;18.636;2023-02-22T14:48:34;98275.89;;;13.05;56.65
56992;BME280;42885;49.754;18.636;2023-02-22T14:51:24;98268.82;;;12.87;57.58